Minquadale, Delaware
Current Conditions -  °F | °C
As of 9:51 AM on Friday 24 Oct 2014 (Local Time) from KILG Reporting Station
Scattered Clouds Scattered Clouds  
Wind Chill: 61°   Ceiling: Unl
Heat Index: 61°   Visibility: 10mi
Dew Point: 46°   Wind: 13mph
Humidity: 58%   Direction: 320°NW
Pressure: 29.91"   Gusts: NA
Location:  39.6483°N, 75.6041°W
Report Text: KILG 241351Z 32011KT 10SM SCT038 16/08 A2991 RMK AO2 SLP128 T01610078
Loading
Personal Weather Stations






























Interactive Weather Map
Tropical Storm Tracking
New forecast layout! Learn more

10-Day Weather Forecast

Advertisements
Track Severe Weather on mobile